sensor_id;sensor_type;location;lat;lon;timestamp;P1;durP1;ratioP1;P2;durP2;ratioP2
47433;SDS011;33184;48.774;8.918;2023-02-11T00:04:14;31.33;;;17.83;;
47433;SDS011;33184;48.774;8.918;2023-02-11T00:09:36;41.17;;;22.27;;
47433;SDS011;33184;48.774;8.918;2023-02-11T00:14:57;40.63;;;20.07;;
47433;SDS011;33184;48.774;8.918;2023-02-11T00:20:17;32.30;;;18.03;;
47433;SDS011;33184;48.774;8.918;2023-02-11T00:25:42;32.83;;;20.13;;
47433;SDS011;33184;48.774;8.918;2023-02-11T00:31:04;35.93;;;21.07;;
47433;SDS011;33184;48.774;8.918;2023-02-11T00:36:25;41.77;;;21.40;;
47433;SDS011;33184;48.774;8.918;2023-02-11T00:41:48;41.43;;;22.77;;
47433;SDS011;33184;48.774;8.918;2023-02-11T00:47:08;40.33;;;21.47;;
47433;SDS011;33184;48.774;8.918;2023-02-11T00:52:30;41.23;;;21.00;;
47433;SDS011;33184;48.774;8.918;2023-02-11T00:57:51;41.90;;;23.17;;
47433;SDS011;33184;48.774;8.918;2023-02-11T01:03:11;38.67;;;21.07;;
47433;SDS011;33184;48.774;8.918;2023-02-11T01:08:32;41.80;;;21.77;;
47433;SDS011;33184;48.774;8.918;2023-02-11T01:13:54;45.67;;;23.93;;
47433;SDS011;33184;48.774;8.918;2023-02-11T01:19:16;42.57;;;22.60;;
47433;SDS011;33184;48.774;8.918;2023-02-11T01:24:39;38.77;;;20.47;;
47433;SDS011;33184;48.774;8.918;2023-02-11T01:30:01;45.10;;;22.47;;
47433;SDS011;33184;48.774;8.918;2023-02-11T01:35:22;40.93;;;23.07;;
47433;SDS011;33184;48.774;8.918;2023-02-11T01:40:48;38.23;;;20.27;;
47433;SDS011;33184;48.774;8.918;2023-02-11T01:46:29;39.23;;;20.33;;
47433;SDS011;33184;48.774;8.918;2023-02-11T01:57:42;42.83;;;23.30;;
47433;SDS011;33184;48.774;8.918;2023-02-11T02:08:43;34.37;;;19.73;;
47433;SDS011;33184;48.774;8.918;2023-02-11T02:14:10;36.67;;;20.63;;
47433;SDS011;33184;48.774;8.918;2023-02-11T02:30:52;43.73;;;21.53;;
47433;SDS011;33184;48.774;8.918;2023-02-11T02:42:04;39.40;;;19.87;;
47433;SDS011;33184;48.774;8.918;2023-02-11T02:47:25;40.87;;;21.63;;
47433;SDS011;33184;48.774;8.918;2023-02-11T03:09:58;40.03;;;20.00;;
47433;SDS011;33184;48.774;8.918;2023-02-11T03:15:25;39.03;;;20.53;;
47433;SDS011;33184;48.774;8.918;2023-02-11T03:20:48;29.67;;;18.60;;
47433;SDS011;33184;48.774;8.918;2023-02-11T03:26:16;32.50;;;19.77;;
47433;SDS011;33184;48.774;8.918;2023-02-11T03:37:21;36.73;;;19.97;;
47433;SDS011;33184;48.774;8.918;2023-02-11T03:42:50;35.20;;;18.90;;
47433;SDS011;33184;48.774;8.918;2023-02-11T03:48:15;33.20;;;18.07;;
47433;SDS011;33184;48.774;8.918;2023-02-11T03:53:42;35.20;;;19.63;;
47433;SDS011;33184;48.774;8.918;2023-02-11T03:59:05;39.13;;;19.47;;
47433;SDS011;33184;48.774;8.918;2023-02-11T04:04:27;41.63;;;20.37;;
47433;SDS011;33184;48.774;8.918;2023-02-11T04:09:48;32.87;;;18.97;;
47433;SDS011;33184;48.774;8.918;2023-02-11T04:15:08;32.60;;;18.03;;
47433;SDS011;33184;48.774;8.918;2023-02-11T04:20:30;35.80;;;18.57;;
47433;SDS011;33184;48.774;8.918;2023-02-11T04:25:51;38.67;;;20.13;;
47433;SDS011;33184;48.774;8.918;2023-02-11T04:31:11;41.13;;;21.00;;
47433;SDS011;33184;48.774;8.918;2023-02-11T04:36:32;36.20;;;20.40;;
47433;SDS011;33184;48.774;8.918;2023-02-11T04:41:52;38.13;;;19.33;;
47433;SDS011;33184;48.774;8.918;2023-02-11T04:47:13;32.17;;;17.83;;
47433;SDS011;33184;48.774;8.918;2023-02-11T04:52:35;35.67;;;18.83;;
47433;SDS011;33184;48.774;8.918;2023-02-11T04:57:56;39.60;;;20.77;;
47433;SDS011;33184;48.774;8.918;2023-02-11T05:03:16;37.07;;;19.27;;
47433;SDS011;33184;48.774;8.918;2023-02-11T05:08:37;35.43;;;19.00;;
47433;SDS011;33184;48.774;8.918;2023-02-11T05:13:58;37.40;;;18.60;;
47433;SDS011;33184;48.774;8.918;2023-02-11T05:19:18;31.43;;;18.30;;
47433;SDS011;33184;48.774;8.918;2023-02-11T05:24:39;33.77;;;18.27;;
47433;SDS011;33184;48.774;8.918;2023-02-11T05:29:59;35.53;;;19.57;;
47433;SDS011;33184;48.774;8.918;2023-02-11T05:35:20;29.20;;;16.17;;
47433;SDS011;33184;48.774;8.918;2023-02-11T05:40:41;33.27;;;18.93;;
47433;SDS011;33184;48.774;8.918;2023-02-11T05:46:02;34.93;;;18.73;;
47433;SDS011;33184;48.774;8.918;2023-02-11T05:51:23;29.33;;;15.57;;
47433;SDS011;33184;48.774;8.918;2023-02-11T05:56:44;30.47;;;16.97;;
47433;SDS011;33184;48.774;8.918;2023-02-11T06:02:05;25.93;;;15.20;;
47433;SDS011;33184;48.774;8.918;2023-02-11T06:07:27;24.37;;;14.27;;
47433;SDS011;33184;48.774;8.918;2023-02-11T06:12:47;28.30;;;16.23;;
47433;SDS011;33184;48.774;8.918;2023-02-11T06:18:08;31.87;;;15.97;;
47433;SDS011;33184;48.774;8.918;2023-02-11T06:23:28;24.13;;;13.43;;
47433;SDS011;33184;48.774;8.918;2023-02-11T06:28:49;25.17;;;14.07;;
47433;SDS011;33184;48.774;8.918;2023-02-11T06:34:10;27.20;;;16.60;;
47433;SDS011;33184;48.774;8.918;2023-02-11T06:39:30;32.77;;;17.60;;
47433;SDS011;33184;48.774;8.918;2023-02-11T06:44:51;31.43;;;15.90;;
47433;SDS011;33184;48.774;8.918;2023-02-11T06:50:12;31.10;;;17.77;;
47433;SDS011;33184;48.774;8.918;2023-02-11T06:55:34;32.20;;;16.07;;
47433;SDS011;33184;48.774;8.918;2023-02-11T07:00:55;33.13;;;18.20;;
47433;SDS011;33184;48.774;8.918;2023-02-11T07:06:17;35.70;;;18.90;;
47433;SDS011;33184;48.774;8.918;2023-02-11T07:11:39;43.43;;;23.83;;
47433;SDS011;33184;48.774;8.918;2023-02-11T07:16:59;39.60;;;20.07;;
47433;SDS011;33184;48.774;8.918;2023-02-11T07:22:20;32.20;;;18.03;;
47433;SDS011;33184;48.774;8.918;2023-02-11T07:27:41;29.10;;;16.93;;
47433;SDS011;33184;48.774;8.918;2023-02-11T07:33:01;29.10;;;17.37;;
47433;SDS011;33184;48.774;8.918;2023-02-11T07:38:22;37.80;;;20.60;;
47433;SDS011;33184;48.774;8.918;2023-02-11T07:43:43;32.73;;;18.57;;
47433;SDS011;33184;48.774;8.918;2023-02-11T07:49:04;31.83;;;18.80;;
47433;SDS011;33184;48.774;8.918;2023-02-11T07:54:24;31.77;;;17.63;;
47433;SDS011;33184;48.774;8.918;2023-02-11T07:59:45;35.40;;;20.70;;
47433;SDS011;33184;48.774;8.918;2023-02-11T08:05:05;29.88;;;18.65;;
47433;SDS011;33184;48.774;8.918;2023-02-11T08:10:26;35.70;;;18.50;;
47433;SDS011;33184;48.774;8.918;2023-02-11T08:15:47;33.67;;;17.67;;
47433;SDS011;33184;48.774;8.918;2023-02-11T08:21:08;28.50;;;17.43;;
47433;SDS011;33184;48.774;8.918;2023-02-11T08:26:30;34.97;;;20.07;;
47433;SDS011;33184;48.774;8.918;2023-02-11T08:31:53;35.53;;;20.60;;
47433;SDS011;33184;48.774;8.918;2023-02-11T08:37:14;27.23;;;15.40;;
47433;SDS011;33184;48.774;8.918;2023-02-11T08:42:36;22.73;;;14.20;;
47433;SDS011;33184;48.774;8.918;2023-02-11T08:47:57;25.17;;;13.00;;
47433;SDS011;33184;48.774;8.918;2023-02-11T08:53:17;27.90;;;15.47;;
47433;SDS011;33184;48.774;8.918;2023-02-11T08:58:38;27.80;;;15.80;;
47433;SDS011;33184;48.774;8.918;2023-02-11T09:03:59;26.23;;;16.43;;
47433;SDS011;33184;48.774;8.918;2023-02-11T09:09:20;23.73;;;13.00;;
47433;SDS011;33184;48.774;8.918;2023-02-11T09:14:41;24.70;;;13.97;;
47433;SDS011;33184;48.774;8.918;2023-02-11T09:20:02;21.20;;;12.03;;
47433;SDS011;33184;48.774;8.918;2023-02-11T09:25:24;27.27;;;12.53;;
47433;SDS011;33184;48.774;8.918;2023-02-11T09:30:44;16.53;;;9.97;;
47433;SDS011;33184;48.774;8.918;2023-02-11T09:36:05;20.73;;;13.90;;
47433;SDS011;33184;48.774;8.918;2023-02-11T09:41:34;26.83;;;13.23;;
47433;SDS011;33184;48.774;8.918;2023-02-11T09:47:06;19.00;;;12.33;;
47433;SDS011;33184;48.774;8.918;2023-02-11T09:53:30;21.13;;;12.57;;
47433;SDS011;33184;48.774;8.918;2023-02-11T09:58:41;20.15;;;11.50;;
47433;SDS011;33184;48.774;8.918;2023-02-11T10:04:04;11.80;;;8.10;;
47433;SDS011;33184;48.774;8.918;2023-02-11T10:09:48;12.37;;;8.47;;
47433;SDS011;33184;48.774;8.918;2023-02-11T10:26:28;9.90;;;7.17;;
47433;SDS011;33184;48.774;8.918;2023-02-11T10:31:50;9.47;;;6.37;;
47433;SDS011;33184;48.774;8.918;2023-02-11T10:37:11;16.10;;;9.00;;
47433;SDS011;33184;48.774;8.918;2023-02-11T10:42:33;15.03;;;9.50;;
47433;SDS011;33184;48.774;8.918;2023-02-11T10:47:55;13.37;;;9.77;;
47433;SDS011;33184;48.774;8.918;2023-02-11T10:53:16;13.80;;;8.47;;
47433;SDS011;33184;48.774;8.918;2023-02-11T10:58:43;9.88;;;7.40;;
47433;SDS011;33184;48.774;8.918;2023-02-11T11:04:08;13.37;;;8.40;;
47433;SDS011;33184;48.774;8.918;2023-02-11T11:10:04;10.07;;;7.53;;
47433;SDS011;33184;48.774;8.918;2023-02-11T11:15:28;10.90;;;6.85;;
47433;SDS011;33184;48.774;8.918;2023-02-11T11:20:54;11.63;;;7.13;;
47433;SDS011;33184;48.774;8.918;2023-02-11T11:26:18;10.33;;;5.73;;
47433;SDS011;33184;48.774;8.918;2023-02-11T11:31:58;6.93;;;4.40;;
47433;SDS011;33184;48.774;8.918;2023-02-11T11:37:25;8.60;;;4.93;;
47433;SDS011;33184;48.774;8.918;2023-02-11T11:43:05;11.93;;;5.20;;
47433;SDS011;33184;48.774;8.918;2023-02-11T11:48:33;7.13;;;4.53;;
47433;SDS011;33184;48.774;8.918;2023-02-11T11:53:59;8.53;;;4.33;;
47433;SDS011;33184;48.774;8.918;2023-02-11T11:59:23;9.23;;;3.83;;
47433;SDS011;33184;48.774;8.918;2023-02-11T12:05:02;7.03;;;4.13;;
47433;SDS011;33184;48.774;8.918;2023-02-11T12:28:02;2.93;;;2.17;;
47433;SDS011;33184;48.774;8.918;2023-02-11T12:55:55;15.03;;;6.47;;
47433;SDS011;33184;48.774;8.918;2023-02-11T13:06:54;8.53;;;5.47;;
47433;SDS011;33184;48.774;8.918;2023-02-11T13:12:21;10.57;;;5.60;;
47433;SDS011;33184;48.774;8.918;2023-02-11T13:18:44;11.37;;;6.57;;
47433;SDS011;33184;48.774;8.918;2023-02-11T13:23:54;9.70;;;6.43;;
47433;SDS011;33184;48.774;8.918;2023-02-11T13:35:26;13.90;;;8.27;;
47433;SDS011;33184;48.774;8.918;2023-02-11T13:47:00;12.63;;;10.27;;
47433;SDS011;33184;48.774;8.918;2023-02-11T13:52:33;16.37;;;9.47;;
47433;SDS011;33184;48.774;8.918;2023-02-11T14:03:27;14.60;;;10.03;;
47433;SDS011;33184;48.774;8.918;2023-02-11T14:14:32;11.77;;;8.33;;
47433;SDS011;33184;48.774;8.918;2023-02-11T14:20:00;15.97;;;9.37;;
47433;SDS011;33184;48.774;8.918;2023-02-11T14:25:24;14.00;;;9.40;;
47433;SDS011;33184;48.774;8.918;2023-02-11T14:42:09;12.57;;;8.67;;
47433;SDS011;33184;48.774;8.918;2023-02-11T14:47:45;10.37;;;7.23;;
47433;SDS011;33184;48.774;8.918;2023-02-11T14:53:13;9.57;;;6.27;;
47433;SDS011;33184;48.774;8.918;2023-02-11T14:58:38;11.47;;;7.00;;
47433;SDS011;33184;48.774;8.918;2023-02-11T15:04:16;11.47;;;6.43;;
47433;SDS011;33184;48.774;8.918;2023-02-11T15:09:45;14.27;;;8.87;;
47433;SDS011;33184;48.774;8.918;2023-02-11T15:15:11;13.27;;;9.83;;
47433;SDS011;33184;48.774;8.918;2023-02-11T15:20:33;13.87;;;9.20;;
47433;SDS011;33184;48.774;8.918;2023-02-11T15:25:55;13.27;;;8.80;;
47433;SDS011;33184;48.774;8.918;2023-02-11T15:31:15;12.57;;;8.67;;
47433;SDS011;33184;48.774;8.918;2023-02-11T15:36:46;12.63;;;9.03;;
47433;SDS011;33184;48.774;8.918;2023-02-11T15:47:45;14.97;;;10.20;;
47433;SDS011;33184;48.774;8.918;2023-02-11T15:53:18;14.40;;;10.60;;
47433;SDS011;33184;48.774;8.918;2023-02-11T15:58:41;14.83;;;10.33;;
47433;SDS011;33184;48.774;8.918;2023-02-11T16:04:04;17.03;;;11.50;;
47433;SDS011;33184;48.774;8.918;2023-02-11T16:09:34;18.47;;;10.83;;
47433;SDS011;33184;48.774;8.918;2023-02-11T16:14:55;19.33;;;12.07;;
47433;SDS011;33184;48.774;8.918;2023-02-11T16:20:18;17.57;;;11.93;;
47433;SDS011;33184;48.774;8.918;2023-02-11T16:25:40;22.67;;;13.43;;
47433;SDS011;33184;48.774;8.918;2023-02-11T16:31:01;21.63;;;13.13;;
47433;SDS011;33184;48.774;8.918;2023-02-11T16:36:24;18.60;;;13.30;;
47433;SDS011;33184;48.774;8.918;2023-02-11T16:41:44;19.77;;;15.13;;
47433;SDS011;33184;48.774;8.918;2023-02-11T16:47:05;20.43;;;13.93;;
47433;SDS011;33184;48.774;8.918;2023-02-11T16:52:42;20.47;;;13.80;;
47433;SDS011;33184;48.774;8.918;2023-02-11T16:58:05;20.13;;;13.37;;
47433;SDS011;33184;48.774;8.918;2023-02-11T17:03:25;24.60;;;14.73;;
47433;SDS011;33184;48.774;8.918;2023-02-11T17:08:47;22.53;;;14.17;;
47433;SDS011;33184;48.774;8.918;2023-02-11T17:14:08;20.80;;;15.27;;
47433;SDS011;33184;48.774;8.918;2023-02-11T17:19:28;18.17;;;12.43;;
47433;SDS011;33184;48.774;8.918;2023-02-11T17:24:49;17.87;;;13.80;;
47433;SDS011;33184;48.774;8.918;2023-02-11T17:30:11;22.87;;;14.60;;
47433;SDS011;33184;48.774;8.918;2023-02-11T17:35:32;18.37;;;14.03;;
47433;SDS011;33184;48.774;8.918;2023-02-11T17:40:59;19.07;;;14.10;;
47433;SDS011;33184;48.774;8.918;2023-02-11T17:46:21;23.30;;;15.27;;
47433;SDS011;33184;48.774;8.918;2023-02-11T17:51:41;21.80;;;16.30;;
47433;SDS011;33184;48.774;8.918;2023-02-11T17:57:02;21.53;;;15.77;;
47433;SDS011;33184;48.774;8.918;2023-02-11T18:02:23;22.17;;;15.97;;
47433;SDS011;33184;48.774;8.918;2023-02-11T18:07:43;26.33;;;15.83;;
47433;SDS011;33184;48.774;8.918;2023-02-11T18:13:04;23.87;;;15.67;;
47433;SDS011;33184;48.774;8.918;2023-02-11T18:18:24;20.17;;;15.97;;
47433;SDS011;33184;48.774;8.918;2023-02-11T18:23:45;22.53;;;15.87;;
47433;SDS011;33184;48.774;8.918;2023-02-11T18:29:06;24.10;;;16.17;;
47433;SDS011;33184;48.774;8.918;2023-02-11T18:34:27;24.37;;;15.53;;
47433;SDS011;33184;48.774;8.918;2023-02-11T18:39:48;24.80;;;16.47;;
47433;SDS011;33184;48.774;8.918;2023-02-11T18:45:10;27.10;;;18.77;;
47433;SDS011;33184;48.774;8.918;2023-02-11T18:50:34;23.35;;;17.67;;
47433;SDS011;33184;48.774;8.918;2023-02-11T18:55:54;29.80;;;18.90;;
47433;SDS011;33184;48.774;8.918;2023-02-11T19:01:19;26.80;;;18.10;;
47433;SDS011;33184;48.774;8.918;2023-02-11T19:06:46;27.97;;;17.53;;
47433;SDS011;33184;48.774;8.918;2023-02-11T19:12:08;53.20;;;32.67;;
47433;SDS011;33184;48.774;8.918;2023-02-11T19:17:29;68.53;;;42.60;;
47433;SDS011;33184;48.774;8.918;2023-02-11T19:22:49;43.83;;;25.93;;
47433;SDS011;33184;48.774;8.918;2023-02-11T19:28:10;28.63;;;20.03;;
47433;SDS011;33184;48.774;8.918;2023-02-11T19:33:31;33.97;;;23.30;;
47433;SDS011;33184;48.774;8.918;2023-02-11T19:38:51;34.50;;;23.83;;
47433;SDS011;33184;48.774;8.918;2023-02-11T19:44:12;33.43;;;22.17;;
47433;SDS011;33184;48.774;8.918;2023-02-11T19:49:33;33.97;;;22.30;;
47433;SDS011;33184;48.774;8.918;2023-02-11T19:54:54;26.50;;;18.33;;
47433;SDS011;33184;48.774;8.918;2023-02-11T20:00:14;33.43;;;18.97;;
47433;SDS011;33184;48.774;8.918;2023-02-11T20:05:38;30.37;;;19.33;;
47433;SDS011;33184;48.774;8.918;2023-02-11T20:11:06;32.07;;;21.80;;
47433;SDS011;33184;48.774;8.918;2023-02-11T20:16:28;35.23;;;23.03;;
47433;SDS011;33184;48.774;8.918;2023-02-11T20:21:51;30.10;;;21.80;;
47433;SDS011;33184;48.774;8.918;2023-02-11T20:27:12;34.83;;;22.63;;
47433;SDS011;33184;48.774;8.918;2023-02-11T20:32:33;35.57;;;22.93;;
47433;SDS011;33184;48.774;8.918;2023-02-11T20:37:57;33.33;;;24.03;;
47433;SDS011;33184;48.774;8.918;2023-02-11T20:43:18;33.17;;;22.27;;
47433;SDS011;33184;48.774;8.918;2023-02-11T20:48:39;34.30;;;21.37;;
47433;SDS011;33184;48.774;8.918;2023-02-11T20:54:00;35.00;;;22.07;;
47433;SDS011;33184;48.774;8.918;2023-02-11T20:59:21;33.33;;;22.87;;
47433;SDS011;33184;48.774;8.918;2023-02-11T21:04:43;34.57;;;22.93;;
47433;SDS011;33184;48.774;8.918;2023-02-11T21:10:04;41.47;;;24.93;;
47433;SDS011;33184;48.774;8.918;2023-02-11T21:15:25;32.23;;;22.17;;
47433;SDS011;33184;48.774;8.918;2023-02-11T21:20:45;34.90;;;22.83;;
47433;SDS011;33184;48.774;8.918;2023-02-11T21:26:06;33.83;;;22.23;;
47433;SDS011;33184;48.774;8.918;2023-02-11T21:31:29;33.37;;;24.07;;
47433;SDS011;33184;48.774;8.918;2023-02-11T21:36:51;31.97;;;22.67;;
47433;SDS011;33184;48.774;8.918;2023-02-11T21:42:11;33.23;;;23.63;;
47433;SDS011;33184;48.774;8.918;2023-02-11T21:47:32;33.50;;;22.30;;
47433;SDS011;33184;48.774;8.918;2023-02-11T21:52:53;39.40;;;24.10;;
47433;SDS011;33184;48.774;8.918;2023-02-11T21:58:13;32.83;;;23.17;;
47433;SDS011;33184;48.774;8.918;2023-02-11T22:03:34;35.70;;;24.13;;
47433;SDS011;33184;48.774;8.918;2023-02-11T22:08:54;36.40;;;24.20;;
47433;SDS011;33184;48.774;8.918;2023-02-11T22:14:15;33.30;;;22.63;;
47433;SDS011;33184;48.774;8.918;2023-02-11T22:19:36;44.93;;;26.00;;
47433;SDS011;33184;48.774;8.918;2023-02-11T22:24:57;36.57;;;26.43;;
47433;SDS011;33184;48.774;8.918;2023-02-11T22:30:19;39.80;;;26.27;;
47433;SDS011;33184;48.774;8.918;2023-02-11T22:35:39;36.60;;;25.23;;
47433;SDS011;33184;48.774;8.918;2023-02-11T22:41:03;33.83;;;24.17;;
47433;SDS011;33184;48.774;8.918;2023-02-11T22:46:26;30.30;;;21.47;;
47433;SDS011;33184;48.774;8.918;2023-02-11T22:51:47;35.70;;;22.87;;
47433;SDS011;33184;48.774;8.918;2023-02-11T22:57:07;32.30;;;21.60;;
47433;SDS011;33184;48.774;8.918;2023-02-11T23:02:28;39.23;;;22.90;;
47433;SDS011;33184;48.774;8.918;2023-02-11T23:07:50;34.33;;;24.17;;
47433;SDS011;33184;48.774;8.918;2023-02-11T23:13:11;35.33;;;22.53;;
47433;SDS011;33184;48.774;8.918;2023-02-11T23:18:32;36.40;;;23.13;;
47433;SDS011;33184;48.774;8.918;2023-02-11T23:23:54;34.73;;;24.40;;
47433;SDS011;33184;48.774;8.918;2023-02-11T23:29:17;31.27;;;22.53;;
47433;SDS011;33184;48.774;8.918;2023-02-11T23:34:37;37.97;;;25.20;;
47433;SDS011;33184;48.774;8.918;2023-02-11T23:39:58;35.37;;;24.87;;
47433;SDS011;33184;48.774;8.918;2023-02-11T23:45:18;38.07;;;23.23;;
47433;SDS011;33184;48.774;8.918;2023-02-11T23:50:39;33.30;;;22.83;;
47433;SDS011;33184;48.774;8.918;2023-02-11T23:56:07;38.13;;;25.30;;
